Time;durP1;ratioP1;P1;durP2;ratioP2;P2;SDS_P1;SDS_P2;PMS_P1;PMS_P2;Temp;Humidity;BMP_temperature;BMP_pressure;BME280_temperature;BME280_humidity;BME280_pressure;Samples;Min_cycle;Max_cycle;Signal;HPM_P1;HPM_P2
2021/08/25 00:01:18;;;;;;;22.75;2.00;;;;;;;;;;8263747;28;20456;-78
2021/08/25 00:05:24;;;;;;;12.52;2.10;;;;;;;;;;8274467;28;20507;-78
2021/08/25 00:09:29;;;;;;;7.55;1.60;;;;;;;;;;8243790;28;20347;-78
2021/08/25 00:13:34;;;;;;;19.60;1.90;;;;;;;;;;8276731;28;20036;-78
2021/08/25 00:17:39;;;;;;;8.07;1.67;;;;;;;;;;8261274;28;20472;-78
2021/08/25 00:21:45;;;;;;;4.22;1.73;;;;;;;;;;8276673;28;20103;-77
2021/08/25 00:25:53;;;;;;;7.63;1.42;;;;;;;;;;8260805;28;20441;-77
2021/08/25 00:29:58;;;;;;;2.53;1.50;;;;;;;;;;8246719;28;20360;-78
2021/08/25 00:34:03;;;;;;;5.88;1.58;;;;;;;;;;8263077;28;20509;-78
2021/08/25 00:38:09;;;;;;;3.05;1.90;;;;;;;;;;8262958;28;20326;-78
2021/08/25 00:42:14;;;;;;;2.13;1.02;;;;;;;;;;8260827;28;20053;-78
2021/08/25 00:46:19;;;;;;;2.65;1.52;;;;;;;;;;8260718;28;20037;-78
2021/08/25 00:50:24;;;;;;;1.75;1.38;;;;;;;;;;8260751;28;20368;-78
2021/08/25 00:54:29;;;;;;;1.55;1.30;;;;;;;;;;8259913;28;20380;-78
2021/08/25 00:58:40;;;;;;;1.40;0.88;;;;;;;;;;8257075;28;20368;-78
2021/08/25 01:03:02;;;;;;;2.58;1.50;;;;;;;;;;8260731;28;20504;-78
2021/08/25 01:07:11;;;;;;;3.17;1.17;;;;;;;;;;8258809;28;20368;-79
2021/08/25 01:11:16;;;;;;;2.15;1.25;;;;;;;;;;8260420;28;20471;-78
2021/08/25 01:15:21;;;;;;;2.88;1.52;;;;;;;;;;8263287;28;20067;-78
2021/08/25 01:19:30;;;;;;;12.93;1.60;;;;;;;;;;8268553;28;20100;-78
2021/08/25 01:23:46;;;;;;;2.17;1.50;;;;;;;;;;8264914;28;20057;-78
2021/08/25 01:28:02;;;;;;;1.90;1.40;;;;;;;;;;8264831;28;20719;-77
2021/08/25 01:32:08;;;;;;;1.33;0.95;;;;;;;;;;8265116;28;20385;-78
2021/08/25 01:36:18;;;;;;;1.95;1.00;;;;;;;;;;8266885;28;20045;-78
2021/08/25 01:40:23;;;;;;;3.10;1.17;;;;;;;;;;8267768;28;20063;-78
2021/08/25 01:44:28;;;;;;;1.88;1.00;;;;;;;;;;8265522;28;20357;-78
2021/08/25 01:48:34;;;;;;;3.28;1.40;;;;;;;;;;8267739;28;20343;-78
2021/08/25 01:52:40;;;;;;;3.25;1.70;;;;;;;;;;8266463;28;20135;-77
2021/08/25 01:56:45;;;;;;;4.60;2.50;;;;;;;;;;8268077;28;20504;-78
2021/08/25 02:00:51;;;;;;;5.28;1.58;;;;;;;;;;8266629;28;20384;-78
2021/08/25 02:04:56;;;;;;;3.35;1.10;;;;;;;;;;8263303;28;20380;-79
2021/08/25 02:09:02;;;;;;;3.05;1.67;;;;;;;;;;8264660;28;20071;-77
2021/08/25 02:13:07;;;;;;;2.53;1.60;;;;;;;;;;8280639;28;20036;-78
2021/08/25 02:17:12;;;;;;;5.15;1.40;;;;;;;;;;8264902;28;20107;-78
2021/08/25 02:21:21;;;;;;;2.75;1.30;;;;;;;;;;8267575;28;20405;-77
2021/08/25 02:25:26;;;;;;;2.25;1.40;;;;;;;;;;8265281;28;20045;-78
2021/08/25 02:29:31;;;;;;;2.15;1.27;;;;;;;;;;8267717;28;20094;-78
2021/08/25 02:33:36;;;;;;;6.47;2.22;;;;;;;;;;8261339;28;20357;-77
2021/08/25 02:37:43;;;;;;;5.47;2.10;;;;;;;;;;8264346;28;20361;-78
2021/08/25 02:41:48;;;;;;;2.33;1.42;;;;;;;;;;8260994;28;20515;-78
2021/08/25 02:45:53;;;;;;;2.88;1.83;;;;;;;;;;8260291;28;20465;-78
2021/08/25 02:49:58;;;;;;;3.90;2.00;;;;;;;;;;8262494;28;20041;-78
2021/08/25 02:54:04;;;;;;;2.95;2.00;;;;;;;;;;8260724;28;20367;-78
2021/08/25 02:58:09;;;;;;;3.40;1.80;;;;;;;;;;8260338;28;20107;-78
2021/08/25 03:02:14;;;;;;;5.97;2.17;;;;;;;;;;8259739;28;20498;-78
2021/08/25 03:06:20;;;;;;;3.60;1.92;;;;;;;;;;8261552;28;20092;-79
2021/08/25 03:10:28;;;;;;;4.68;2.22;;;;;;;;;;8261293;28;20044;-79
2021/08/25 03:14:35;;;;;;;2.75;1.83;;;;;;;;;;8263203;28;20037;-78
2021/08/25 03:18:41;;;;;;;8.35;2.10;;;;;;;;;;8259031;28;20353;-79
2021/08/25 03:22:46;;;;;;;6.53;2.38;;;;;;;;;;8275874;28;20483;-78
2021/08/25 03:26:51;;;;;;;8.25;1.90;;;;;;;;;;8262312;28;20399;-79
2021/08/25 03:30:57;;;;;;;5.90;1.98;;;;;;;;;;8260819;28;20380;-78
2021/08/25 03:35:03;;;;;;;3.95;1.95;;;;;;;;;;8262058;28;20356;-78
2021/08/25 03:39:08;;;;;;;6.28;2.25;;;;;;;;;;8263002;28;20045;-78
2021/08/25 03:43:14;;;;;;;8.40;2.03;;;;;;;;;;8258136;28;20517;-79
2021/08/25 03:47:19;;;;;;;5.50;2.20;;;;;;;;;;8261731;28;20367;-78
2021/08/25 03:51:24;;;;;;;3.95;2.20;;;;;;;;;;8261582;28;20063;-79
2021/08/25 03:55:29;;;;;;;4.88;2.15;;;;;;;;;;8264131;28;20456;-78
2021/08/25 03:59:34;;;;;;;3.10;1.85;;;;;;;;;;8264087;28;20108;-79
2021/08/25 04:03:39;;;;;;;3.50;1.80;;;;;;;;;;8263824;28;20063;-78
2021/08/25 04:07:45;;;;;;;2.45;1.80;;;;;;;;;;8262122;28;20053;-78
2021/08/25 04:11:52;;;;;;;3.17;1.63;;;;;;;;;;8260152;28;20406;-78
2021/08/25 04:15:57;;;;;;;4.43;1.90;;;;;;;;;;8259856;28;20041;-78
2021/08/25 04:20:04;;;;;;;3.88;1.55;;;;;;;;;;8262471;28;20411;-79
2021/08/25 04:24:09;;;;;;;2.63;1.38;;;;;;;;;;8261548;28;20490;-79
2021/08/25 04:28:14;;;;;;;3.97;1.63;;;;;;;;;;8262737;28;20044;-78
2021/08/25 04:32:19;;;;;;;17.13;1.90;;;;;;;;;;8261865;28;20430;-78
2021/08/25 04:36:24;;;;;;;5.95;1.58;;;;;;;;;;8262458;28;20387;-79
2021/08/25 04:40:29;;;;;;;2.28;1.33;;;;;;;;;;8260587;28;20456;-79
2021/08/25 04:44:35;;;;;;;4.00;1.90;;;;;;;;;;8276350;28;20463;-79
2021/08/25 04:48:40;;;;;;;2.47;1.45;;;;;;;;;;8261863;28;20329;-78
2021/08/25 04:52:48;;;;;;;5.30;1.35;;;;;;;;;;8266281;28;20468;-78
2021/08/25 04:56:54;;;;;;;2.72;1.70;;;;;;;;;;8267999;28;20453;-78
2021/08/25 05:01:00;;;;;;;2.67;1.60;;;;;;;;;;8268738;28;20057;-79
2021/08/25 05:05:06;;;;;;;3.30;1.73;;;;;;;;;;8265741;28;20483;-78
2021/08/25 05:09:12;;;;;;;3.42;2.05;;;;;;;;;;8267860;28;20371;-79
2021/08/25 05:13:17;;;;;;;6.38;1.58;;;;;;;;;;8265831;28;20049;-79
2021/08/25 05:17:22;;;;;;;5.32;2.20;;;;;;;;;;8269804;28;20368;-78
2021/08/25 05:21:27;;;;;;;3.88;2.20;;;;;;;;;;8267005;28;20382;-80
2021/08/25 05:25:33;;;;;;;4.25;2.70;;;;;;;;;;8282208;28;20388;-78
2021/08/25 05:29:38;;;;;;;4.85;3.05;;;;;;;;;;8266536;28;20486;-78
2021/08/25 05:33:43;;;;;;;9.30;3.85;;;;;;;;;;8266727;28;20472;-79
2021/08/25 05:37:51;;;;;;;13.48;5.60;;;;;;;;;;8264262;28;20060;-78
2021/08/25 05:41:56;;;;;;;8.77;3.55;;;;;;;;;;8268113;28;20045;-78
2021/08/25 05:46:02;;;;;;;6.85;3.70;;;;;;;;;;8269401;28;20333;-78
2021/08/25 05:50:09;;;;;;;21.65;8.13;;;;;;;;;;8267580;28;20479;-78
2021/08/25 05:54:14;;;;;;;22.88;7.60;;;;;;;;;;8268292;28;20049;-77
2021/08/25 05:58:20;;;;;;;11.20;5.45;;;;;;;;;;8266555;28;20432;-77
2021/08/25 06:02:25;;;;;;;12.05;6.07;;;;;;;;;;8265960;28;20471;-77
2021/08/25 06:06:35;;;;;;;5.20;3.15;;;;;;;;;;8248945;28;20472;-78
2021/08/25 06:10:40;;;;;;;5.13;2.95;;;;;;;;;;8247112;28;20383;-77
2021/08/25 06:14:46;;;;;;;5.72;2.95;;;;;;;;;;8265425;28;20467;-79
2021/08/25 06:18:51;;;;;;;6.60;3.60;;;;;;;;;;8249459;28;20371;-78
2021/08/25 06:22:57;;;;;;;8.18;4.13;;;;;;;;;;8259015;28;20494;-77
2021/08/25 06:27:02;;;;;;;10.98;4.60;;;;;;;;;;8258000;28;20044;-77
2021/08/25 06:31:08;;;;;;;6.25;3.92;;;;;;;;;;8261709;28;20048;-77
2021/08/25 06:35:13;;;;;;;9.18;4.85;;;;;;;;;;8257839;28;20348;-76
2021/08/25 06:39:18;;;;;;;10.32;5.78;;;;;;;;;;8259273;28;20049;-77
2021/08/25 06:43:28;;;;;;;7.75;4.25;;;;;;;;;;8259301;28;20494;-78
2021/08/25 06:47:32;;;;;;;9.32;5.00;;;;;;;;;;8259789;28;20468;-76
2021/08/25 06:51:37;;;;;;;11.40;4.93;;;;;;;;;;8258890;28;20380;-77
2021/08/25 06:55:42;;;;;;;11.82;5.60;;;;;;;;;;8259968;28;20369;-77
2021/08/25 06:59:48;;;;;;;12.63;5.00;;;;;;;;;;8259497;28;20367;-77
2021/08/25 07:03:53;;;;;;;12.85;5.40;;;;;;;;;;8258682;28;20352;-77
2021/08/25 07:08:00;;;;;;;15.50;4.70;;;;;;;;;;8259607;28;20491;-77
2021/08/25 07:12:05;;;;;;;11.82;4.70;;;;;;;;;;8258252;28;20048;-77
2021/08/25 07:16:10;;;;;;;11.90;5.00;;;;;;;;;;8258736;28;20371;-77
2021/08/25 07:20:16;;;;;;;11.73;4.85;;;;;;;;;;8258811;28;20460;-77
2021/08/25 07:24:22;;;;;;;15.32;5.30;;;;;;;;;;8258724;28;20356;-77
2021/08/25 07:28:27;;;;;;;12.02;5.10;;;;;;;;;;8258355;28;20387;-76
2021/08/25 07:32:32;;;;;;;11.25;5.10;;;;;;;;;;8258956;28;20502;-77
2021/08/25 07:36:38;;;;;;;10.88;4.95;;;;;;;;;;8256990;28;20493;-76
2021/08/25 07:40:45;;;;;;;12.45;5.78;;;;;;;;;;8258501;28;20056;-77
2021/08/25 07:44:50;;;;;;;10.27;5.53;;;;;;;;;;8257622;28;20514;-76
2021/08/25 07:48:55;;;;;;;13.65;5.65;;;;;;;;;;8258114;28;20040;-76
2021/08/25 07:53:01;;;;;;;10.20;5.07;;;;;;;;;;8257495;28;20044;-75
2021/08/25 07:57:06;;;;;;;10.15;5.28;;;;;;;;;;8256470;28;20111;-76
2021/08/25 08:01:12;;;;;;;14.38;5.88;;;;;;;;;;8258868;28;20045;-76
2021/08/25 08:05:19;;;;;;;12.85;6.72;;;;;;;;;;8258073;28;20453;-76
2021/08/25 08:09:24;;;;;;;8.95;5.68;;;;;;;;;;8256369;28;20379;-75
2021/08/25 08:13:29;;;;;;;11.25;5.50;;;;;;;;;;8257406;28;20369;-75
2021/08/25 08:17:35;;;;;;;10.65;6.13;;;;;;;;;;8257786;28;20468;-75
2021/08/25 08:21:40;;;;;;;10.60;5.65;;;;;;;;;;8257041;28;20372;-75
2021/08/25 08:25:45;;;;;;;9.00;4.28;;;;;;;;;;8260391;28;20049;-75
2021/08/25 08:29:51;;;;;;;8.63;4.72;;;;;;;;;;8263706;28;20511;-75
2021/08/25 08:33:57;;;;;;;10.95;5.10;;;;;;;;;;8264925;28;20482;-76
2021/08/25 08:38:06;;;;;;;7.15;4.25;;;;;;;;;;8262190;28;20485;-74
2021/08/25 08:42:33;;;;;;;12.07;4.90;;;;;;;;;;8263068;28;20079;-75
2021/08/25 08:46:41;;;;;;;8.50;4.20;;;;;;;;;;8264074;28;20334;-75
2021/08/25 08:50:48;;;;;;;7.90;4.20;;;;;;;;;;8262701;28;20452;-74
2021/08/25 08:54:55;;;;;;;9.45;4.55;;;;;;;;;;8261663;28;20363;-74
2021/08/25 08:59:01;;;;;;;8.43;4.37;;;;;;;;;;8262044;28;20403;-75
2021/08/25 09:03:26;;;;;;;9.48;4.15;;;;;;;;;;8263529;28;20566;-75
2021/08/25 09:08:09;;;;;;;10.93;4.82;;;;;;;;;;8261757;28;20403;-75
2021/08/25 09:12:25;;;;;;;10.05;4.47;;;;;;;;;;8260961;28;20480;-75
2021/08/25 09:16:34;;;;;;;7.90;4.70;;;;;;;;;;8262528;28;20455;-75
2021/08/25 09:20:44;;;;;;;7.97;4.40;;;;;;;;;;8265170;28;20063;-75
2021/08/25 09:24:49;;;;;;;10.52;4.35;;;;;;;;;;8262610;28;20490;-75
2021/08/25 09:28:54;;;;;;;11.70;4.57;;;;;;;;;;8262124;28;20452;-75
2021/08/25 09:33:06;;;;;;;8.18;4.30;;;;;;;;;;8261556;28;20586;-75
2021/08/25 09:37:18;;;;;;;9.63;4.53;;;;;;;;;;8263769;28;20382;-74
2021/08/25 09:41:24;;;;;;;7.25;4.20;;;;;;;;;;8262375;28;20372;-74
2021/08/25 09:45:30;;;;;;;8.02;4.05;;;;;;;;;;8260798;28;20542;-74
2021/08/25 09:49:35;;;;;;;7.70;4.07;;;;;;;;;;8259506;28;20391;-75
2021/08/25 09:53:42;;;;;;;8.07;3.75;;;;;;;;;;8263826;28;20374;-74
2021/08/25 09:57:48;;;;;;;9.93;5.00;;;;;;;;;;8263412;28;20461;-74
2021/08/25 10:01:54;;;;;;;6.78;4.07;;;;;;;;;;8259207;28;20060;-75
2021/08/25 10:05:59;;;;;;;8.35;4.25;;;;;;;;;;8261300;28;20067;-74
2021/08/25 10:10:05;;;;;;;6.97;3.78;;;;;;;;;;8261055;28;20364;-74
2021/08/25 10:14:17;;;;;;;7.63;3.85;;;;;;;;;;8259580;28;20493;-74
2021/08/25 10:18:29;;;;;;;7.80;4.10;;;;;;;;;;8259933;28;20344;-74
2021/08/25 10:22:48;;;;;;;8.43;4.10;;;;;;;;;;8260569;28;20507;-74
2021/08/25 10:26:59;;;;;;;7.60;4.03;;;;;;;;;;8259830;28;20045;-73
2021/08/25 10:31:04;;;;;;;7.45;4.15;;;;;;;;;;8258079;28;20388;-74
2021/08/25 10:35:12;;;;;;;6.18;3.50;;;;;;;;;;8259552;28;20494;-74
2021/08/25 10:39:30;;;;;;;10.80;4.22;;;;;;;;;;8261754;28;20313;-73
2021/08/25 10:43:44;;;;;;;12.88;4.30;;;;;;;;;;8260301;28;20353;-74
2021/08/25 10:48:02;;;;;;;8.95;4.47;;;;;;;;;;8257540;28;20479;-74
2021/08/25 10:52:18;;;;;;;9.43;3.85;;;;;;;;;;8257093;28;20130;-74
2021/08/25 10:56:36;;;;;;;10.52;4.07;;;;;;;;;;8259317;28;20371;-74
2021/08/25 11:00:41;;;;;;;7.65;3.97;;;;;;;;;;8259106;28;20364;-74
2021/08/25 11:04:46;;;;;;;7.60;3.90;;;;;;;;;;8259659;28;20049;-74
2021/08/25 11:08:51;;;;;;;10.32;4.55;;;;;;;;;;8259062;28;20460;-75
2021/08/25 11:12:56;;;;;;;7.75;3.67;;;;;;;;;;8260802;28;20375;-75
2021/08/25 11:17:09;;;;;;;8.10;4.53;;;;;;;;;;8261613;28;20091;-76
2021/08/25 11:21:14;;;;;;;8.55;4.20;;;;;;;;;;8258338;28;20053;-74
2021/08/25 11:25:19;;;;;;;9.27;3.90;;;;;;;;;;8260134;28;20447;-74
2021/08/25 11:29:25;;;;;;;7.85;3.97;;;;;;;;;;8258018;28;20383;-75
2021/08/25 11:33:31;;;;;;;7.13;4.07;;;;;;;;;;8258191;28;20488;-75
2021/08/25 11:37:36;;;;;;;11.23;4.15;;;;;;;;;;8260237;28;20045;-75
2021/08/25 11:41:48;;;;;;;8.30;4.00;;;;;;;;;;8261025;28;20455;-75
2021/08/25 11:45:57;;;;;;;8.48;3.90;;;;;;;;;;8257024;28;20475;-74
2021/08/25 11:50:03;;;;;;;9.88;4.07;;;;;;;;;;8274319;28;20329;-74
2021/08/25 11:54:16;;;;;;;8.07;4.22;;;;;;;;;;8242039;28;20349;-74
2021/08/25 11:58:27;;;;;;;9.18;3.88;;;;;;;;;;8256320;28;20456;-75
2021/08/25 12:02:32;;;;;;;12.65;3.65;;;;;;;;;;8273050;28;20462;-74
2021/08/25 12:06:43;;;;;;;9.38;4.07;;;;;;;;;;8259770;28;20063;-74
2021/08/25 12:11:06;;;;;;;8.85;3.88;;;;;;;;;;8256988;28;20349;-74
2021/08/25 12:15:12;;;;;;;9.90;3.60;;;;;;;;;;8239726;28;20368;-74
2021/08/25 12:19:21;;;;;;;11.10;3.78;;;;;;;;;;8256887;28;20060;-74
2021/08/25 12:23:28;;;;;;;8.43;3.90;;;;;;;;;;8258668;28;20041;-74
2021/08/25 12:27:46;;;;;;;7.97;3.42;;;;;;;;;;8256802;28;20071;-74
2021/08/25 12:32:06;;;;;;;7.45;3.80;;;;;;;;;;8256617;28;20487;-75
2021/08/25 12:36:27;;;;;;;7.13;3.35;;;;;;;;;;8257322;28;20071;-75
2021/08/25 12:40:33;;;;;;;7.03;3.42;;;;;;;;;;8255207;28;20383;-74
2021/08/25 12:44:38;;;;;;;7.80;3.90;;;;;;;;;;8255361;28;20463;-75
2021/08/25 12:48:43;;;;;;;6.75;3.60;;;;;;;;;;8255710;28;20037;-75
2021/08/25 12:52:48;;;;;;;6.97;3.78;;;;;;;;;;8254929;28;20338;-74
2021/08/25 12:56:55;;;;;;;9.73;3.45;;;;;;;;;;8255432;28;20348;-74
2021/08/25 13:01:00;;;;;;;8.73;3.30;;;;;;;;;;8255463;28;20040;-74
2021/08/25 13:05:07;;;;;;;9.80;3.60;;;;;;;;;;8256216;28;20506;-74
2021/08/25 13:09:12;;;;;;;13.50;3.88;;;;;;;;;;8256402;28;20483;-74
2021/08/25 13:13:17;;;;;;;9.35;3.85;;;;;;;;;;8263571;28;20448;-75
2021/08/25 13:17:23;;;;;;;7.20;3.47;;;;;;;;;;8262844;28;20368;-74
2021/08/25 13:21:28;;;;;;;8.13;3.40;;;;;;;;;;8263087;28;20356;-74
2021/08/25 13:25:34;;;;;;;8.13;3.83;;;;;;;;;;8264299;28;20589;-74
2021/08/25 13:29:43;;;;;;;7.38;3.58;;;;;;;;;;8263736;28;20353;-75
2021/08/25 13:33:48;;;;;;;8.95;3.80;;;;;;;;;;8260274;28;20353;-75
2021/08/25 13:37:54;;;;;;;8.10;3.42;;;;;;;;;;8264338;28;20466;-75
2021/08/25 13:41:59;;;;;;;10.55;3.63;;;;;;;;;;8259879;28;20044;-75
2021/08/25 13:46:04;;;;;;;7.63;3.92;;;;;;;;;;8262029;28;20048;-75
2021/08/25 13:50:10;;;;;;;6.93;3.65;;;;;;;;;;8261794;28;20068;-75
2021/08/25 13:54:16;;;;;;;9.77;3.90;;;;;;;;;;8261098;28;20376;-74
2021/08/25 13:58:21;;;;;;;6.85;3.50;;;;;;;;;;8260538;28;20048;-75
2021/08/25 14:02:27;;;;;;;6.75;3.40;;;;;;;;;;8261215;28;20063;-75
2021/08/25 14:06:33;;;;;;;7.00;2.90;;;;;;;;;;8259823;28;20057;-75
2021/08/25 14:10:38;;;;;;;8.05;3.67;;;;;;;;;;8259998;28;20321;-75
2021/08/25 14:14:43;;;;;;;9.23;2.90;;;;;;;;;;8258599;28;20075;-74
2021/08/25 14:18:49;;;;;;;6.50;3.13;;;;;;;;;;8259813;28;20392;-74
2021/08/25 14:22:54;;;;;;;6.30;3.03;;;;;;;;;;8252110;28;20162;-75
2021/08/25 14:26:59;;;;;;;7.22;3.30;;;;;;;;;;8260309;28;20487;-74
2021/08/25 14:31:05;;;;;;;8.30;3.35;;;;;;;;;;8259867;28;20395;-75
2021/08/25 14:35:10;;;;;;;6.45;3.33;;;;;;;;;;8260142;28;20464;-74
2021/08/25 14:39:17;;;;;;;9.48;3.90;;;;;;;;;;8257687;28;20407;-74
2021/08/25 14:43:22;;;;;;;9.30;3.58;;;;;;;;;;8259822;28;20356;-73
2021/08/25 14:47:27;;;;;;;5.85;3.30;;;;;;;;;;8258611;28;20361;-74
2021/08/25 14:51:33;;;;;;;8.25;3.38;;;;;;;;;;8258698;28;20460;-74
2021/08/25 14:55:39;;;;;;;6.95;3.28;;;;;;;;;;8257909;28;20394;-74
2021/08/25 14:59:44;;;;;;;7.47;3.58;;;;;;;;;;8259582;28;20407;-75
2021/08/25 15:03:49;;;;;;;7.07;3.10;;;;;;;;;;8258214;28;20380;-74
2021/08/25 15:07:56;;;;;;;5.10;2.80;;;;;;;;;;8254190;28;20387;-75
2021/08/25 15:12:00;;;;;;;5.63;3.30;;;;;;;;;;8289760;28;20056;-74
2021/08/25 15:16:05;;;;;;;6.82;3.47;;;;;;;;;;8288185;28;20062;-75
2021/08/25 15:20:12;;;;;;;8.05;3.67;;;;;;;;;;8288431;28;20360;-74
2021/08/25 15:24:16;;;;;;;9.85;4.53;;;;;;;;;;8271819;28;20052;-75
2021/08/25 15:28:20;;;;;;;13.88;3.88;;;;;;;;;;8305826;28;20469;-74
2021/08/25 15:32:24;;;;;;;8.30;4.13;;;;;;;;;;8289427;28;20336;-74
2021/08/25 15:36:27;;;;;;;7.85;3.58;;;;;;;;;;8290831;28;20467;-74
2021/08/25 15:40:31;;;;;;;9.23;3.65;;;;;;;;;;8290232;28;20480;-74
2021/08/25 15:44:35;;;;;;;8.35;3.28;;;;;;;;;;8290539;28;20474;-73
2021/08/25 15:48:40;;;;;;;6.78;3.50;;;;;;;;;;8289823;28;20475;-74
2021/08/25 15:52:45;;;;;;;7.80;3.50;;;;;;;;;;8288410;28;20470;-74
2021/08/25 15:56:49;;;;;;;6.97;3.13;;;;;;;;;;8291029;28;20471;-73
2021/08/25 16:00:54;;;;;;;10.10;3.95;;;;;;;;;;8290705;28;20067;-74
2021/08/25 16:05:02;;;;;;;7.30;3.15;;;;;;;;;;8289587;28;20562;-74
2021/08/25 16:09:08;;;;;;;6.90;3.88;;;;;;;;;;8288373;28;20456;-74
2021/08/25 16:13:12;;;;;;;6.80;3.40;;;;;;;;;;8288277;28;20455;-75
2021/08/25 16:17:17;;;;;;;7.28;3.50;;;;;;;;;;8289633;28;20371;-74
2021/08/25 16:21:23;;;;;;;7.28;3.50;;;;;;;;;;8289032;28;20036;-73
2021/08/25 16:25:27;;;;;;;10.35;4.45;;;;;;;;;;8289014;28;20353;-73
2021/08/25 16:29:32;;;;;;;9.07;3.83;;;;;;;;;;8290197;28;20471;-73
2021/08/25 16:33:37;;;;;;;9.15;3.65;;;;;;;;;;8289362;28;20451;-74
2021/08/25 16:37:41;;;;;;;9.15;3.95;;;;;;;;;;8271498;28;20395;-73
2021/08/25 16:41:45;;;;;;;10.10;3.97;;;;;;;;;;8287986;28;20362;-74
2021/08/25 16:45:50;;;;;;;10.05;4.43;;;;;;;;;;8289548;28;20340;-74
2021/08/25 16:49:54;;;;;;;12.52;3.97;;;;;;;;;;8296237;28;20355;-73
2021/08/25 16:54:03;;;;;;;11.43;4.30;;;;;;;;;;8291267;28;20372;-73
2021/08/25 16:58:10;;;;;;;12.07;4.43;;;;;;;;;;8294225;28;20048;-73
2021/08/25 17:02:14;;;;;;;9.73;5.03;;;;;;;;;;8296246;28;20432;-73
2021/08/25 17:06:18;;;;;;;9.68;4.82;;;;;;;;;;8294809;28;20336;-74
2021/08/25 17:10:21;;;;;;;9.07;4.40;;;;;;;;;;8291663;28;20406;-73
2021/08/25 17:14:27;;;;;;;8.85;4.72;;;;;;;;;;8288445;28;20497;-73
2021/08/25 17:18:32;;;;;;;10.52;4.70;;;;;;;;;;8290157;28;20375;-73
2021/08/25 17:22:39;;;;;;;10.75;5.35;;;;;;;;;;8291934;28;20371;-73
2021/08/25 17:26:43;;;;;;;12.95;5.55;;;;;;;;;;8293665;28;20447;-73
2021/08/25 17:30:49;;;;;;;12.95;4.40;;;;;;;;;;8294483;28;20483;-73
2021/08/25 17:34:54;;;;;;;12.50;5.05;;;;;;;;;;8293080;28;20475;-73
2021/08/25 17:38:59;;;;;;;16.10;6.80;;;;;;;;;;8295315;28;20440;-73
2021/08/25 17:43:06;;;;;;;13.98;4.95;;;;;;;;;;8293321;28;20370;-73
2021/08/25 17:47:11;;;;;;;15.23;6.88;;;;;;;;;;8311044;28;20486;-73
2021/08/25 17:51:17;;;;;;;14.63;5.53;;;;;;;;;;8294660;28;20410;-73
2021/08/25 17:55:22;;;;;;;10.45;5.10;;;;;;;;;;8293851;28;20071;-73
2021/08/25 17:59:29;;;;;;;8.45;3.50;;;;;;;;;;8294183;28;20386;-73
2021/08/25 18:03:35;;;;;;;11.65;3.70;;;;;;;;;;8276961;28;20056;-73
2021/08/25 18:07:40;;;;;;;7.00;3.63;;;;;;;;;;8294027;28;20052;-73
2021/08/25 18:11:45;;;;;;;12.80;4.10;;;;;;;;;;8295002;28;20459;-73
2021/08/25 18:15:50;;;;;;;8.48;3.92;;;;;;;;;;8294500;28;20459;-73
2021/08/25 18:19:56;;;;;;;10.40;4.25;;;;;;;;;;8294017;28;20048;-73
2021/08/25 18:24:01;;;;;;;10.50;4.40;;;;;;;;;;8293932;28;20479;-73
2021/08/25 18:28:06;;;;;;;8.48;4.85;;;;;;;;;;8293094;28;20472;-73
2021/08/25 18:32:12;;;;;;;18.00;8.38;;;;;;;;;;8292509;28;20053;-73
2021/08/25 18:36:18;;;;;;;14.02;7.00;;;;;;;;;;8293052;28;20341;-73
2021/08/25 18:40:23;;;;;;;18.02;5.07;;;;;;;;;;8293055;28;20390;-73
2021/08/25 18:44:28;;;;;;;11.85;4.97;;;;;;;;;;8293325;28;20438;-74
2021/08/25 18:48:33;;;;;;;16.45;7.40;;;;;;;;;;8293239;28;20329;-73
2021/08/25 18:52:39;;;;;;;39.03;17.33;;;;;;;;;;8293028;28;20359;-73
2021/08/25 18:56:44;;;;;;;24.92;11.05;;;;;;;;;;8309155;28;20356;-73
2021/08/25 19:00:50;;;;;;;22.98;8.27;;;;;;;;;;8292712;28;20364;-73
2021/08/25 19:04:55;;;;;;;23.02;9.32;;;;;;;;;;8294205;28;20470;-73
2021/08/25 19:09:00;;;;;;;14.75;5.78;;;;;;;;;;8290013;28;20048;-73
2021/08/25 19:13:05;;;;;;;22.58;9.02;;;;;;;;;;8294156;28;20478;-73
2021/08/25 19:17:11;;;;;;;10.85;5.45;;;;;;;;;;8292732;28;20044;-73
2021/08/25 19:21:20;;;;;;;13.80;4.57;;;;;;;;;;8306551;28;20044;-73
2021/08/25 19:25:26;;;;;;;14.50;4.95;;;;;;;;;;8292140;28;20506;-73
2021/08/25 19:29:31;;;;;;;13.82;5.63;;;;;;;;;;8292807;28;20348;-73
2021/08/25 19:33:38;;;;;;;9.10;4.10;;;;;;;;;;8306230;28;20490;-72
2021/08/25 19:37:43;;;;;;;15.35;6.00;;;;;;;;;;8292950;28;20071;-73
2021/08/25 19:41:48;;;;;;;14.90;5.70;;;;;;;;;;8291051;28;20340;-73
2021/08/25 19:45:53;;;;;;;14.75;5.25;;;;;;;;;;8291695;28;20068;-73
2021/08/25 19:50:00;;;;;;;14.30;4.90;;;;;;;;;;8291930;28;20337;-74
2021/08/25 19:54:03;;;;;;;14.98;5.35;;;;;;;;;;8290049;28;20468;-73
2021/08/25 19:58:08;;;;;;;11.65;5.35;;;;;;;;;;8289922;28;20448;-74
2021/08/25 20:02:14;;;;;;;10.38;4.07;;;;;;;;;;8291011;28;20037;-72
2021/08/25 20:06:19;;;;;;;9.65;4.28;;;;;;;;;;8290369;28;20041;-74
2021/08/25 20:10:24;;;;;;;7.93;4.15;;;;;;;;;;8293800;28;20387;-73
2021/08/25 20:14:30;;;;;;;10.27;4.65;;;;;;;;;;8290150;28;20486;-74
2021/08/25 20:18:35;;;;;;;12.27;5.30;;;;;;;;;;8289868;28;20391;-73
2021/08/25 20:22:40;;;;;;;8.95;4.43;;;;;;;;;;8289318;28;20364;-72
2021/08/25 20:26:46;;;;;;;13.95;5.00;;;;;;;;;;8305588;28;20072;-73
2021/08/25 20:30:51;;;;;;;9.30;4.70;;;;;;;;;;8289772;28;20503;-73
2021/08/25 20:34:55;;;;;;;10.95;4.85;;;;;;;;;;8288835;28;20402;-73
2021/08/25 20:39:01;;;;;;;10.48;4.78;;;;;;;;;;8290662;28;20063;-73
2021/08/25 20:43:06;;;;;;;9.20;4.20;;;;;;;;;;8289272;28;20463;-73
2021/08/25 20:47:11;;;;;;;10.30;4.88;;;;;;;;;;8290443;28;20375;-73
2021/08/25 20:51:16;;;;;;;10.57;4.95;;;;;;;;;;8288151;28;20067;-74
2021/08/25 20:55:22;;;;;;;12.07;4.50;;;;;;;;;;8289167;28;20467;-73
2021/08/25 20:59:27;;;;;;;9.18;4.32;;;;;;;;;;8288759;28;20356;-74
2021/08/25 21:03:32;;;;;;;11.13;4.75;;;;;;;;;;8290131;28;20483;-73
2021/08/25 21:07:37;;;;;;;12.02;4.50;;;;;;;;;;8291030;28;20490;-73
2021/08/25 21:11:42;;;;;;;10.48;4.93;;;;;;;;;;8290801;28;20463;-73
2021/08/25 21:15:48;;;;;;;9.98;4.97;;;;;;;;;;8290214;28;20060;-73
2021/08/25 21:19:53;;;;;;;12.57;4.82;;;;;;;;;;8287252;28;20208;-73
2021/08/25 21:23:58;;;;;;;14.13;5.35;;;;;;;;;;8289298;28;20447;-73
2021/08/25 21:28:05;;;;;;;10.95;4.93;;;;;;;;;;8290024;28;20452;-73
2021/08/25 21:32:10;;;;;;;11.63;5.65;;;;;;;;;;8292972;28;20505;-73
2021/08/25 21:36:17;;;;;;;11.20;4.43;;;;;;;;;;8296025;28;20044;-73
2021/08/25 21:40:22;;;;;;;12.48;5.45;;;;;;;;;;8294161;28;20057;-73
2021/08/25 21:44:28;;;;;;;11.80;4.72;;;;;;;;;;8294409;28;20467;-73
2021/08/25 21:48:34;;;;;;;14.18;5.15;;;;;;;;;;8295522;28;20475;-73
2021/08/25 21:52:39;;;;;;;13.27;5.30;;;;;;;;;;8294567;28;20490;-73
2021/08/25 21:56:44;;;;;;;10.02;4.78;;;;;;;;;;8294228;28;20048;-73
2021/08/25 22:00:54;;;;;;;11.40;4.57;;;;;;;;;;8292669;28;20371;-73
2021/08/25 22:05:02;;;;;;;11.80;4.88;;;;;;;;;;8293581;28;20459;-73
2021/08/25 22:09:09;;;;;;;13.67;4.80;;;;;;;;;;8295068;28;20455;-73
2021/08/25 22:13:14;;;;;;;12.40;5.40;;;;;;;;;;8291859;28;20452;-73
2021/08/25 22:17:19;;;;;;;12.90;4.80;;;;;;;;;;8291882;28;20483;-73
2021/08/25 22:21:24;;;;;;;9.18;5.03;;;;;;;;;;8293113;28;20467;-73
2021/08/25 22:25:30;;;;;;;17.15;5.72;;;;;;;;;;8293958;28;20070;-73
2021/08/25 22:29:36;;;;;;;11.13;4.90;;;;;;;;;;8293731;28;20466;-73
2021/08/25 22:33:42;;;;;;;12.30;4.88;;;;;;;;;;8291980;28;20492;-73
2021/08/25 22:37:47;;;;;;;11.43;5.25;;;;;;;;;;8307852;28;20398;-73
2021/08/25 22:41:52;;;;;;;12.55;5.47;;;;;;;;;;8290454;28;20340;-73
2021/08/25 22:45:57;;;;;;;14.27;5.85;;;;;;;;;;8294155;28;20467;-73
2021/08/25 22:50:04;;;;;;;12.07;5.90;;;;;;;;;;8292819;28;20447;-73
2021/08/25 22:54:12;;;;;;;13.90;5.55;;;;;;;;;;8292208;28;20428;-73
2021/08/25 22:58:17;;;;;;;14.48;5.43;;;;;;;;;;8274613;28;20383;-74
2021/08/25 23:02:22;;;;;;;12.18;5.18;;;;;;;;;;8293442;28;20386;-74
2021/08/25 23:06:27;;;;;;;13.05;5.72;;;;;;;;;;8307840;28;20573;-73
2021/08/25 23:10:32;;;;;;;14.35;5.63;;;;;;;;;;8292210;28;20487;-73
2021/08/25 23:14:38;;;;;;;13.23;5.97;;;;;;;;;;8291389;28;20337;-75
2021/08/25 23:18:43;;;;;;;14.00;5.57;;;;;;;;;;8289673;28;20407;-73
2021/08/25 23:22:48;;;;;;;15.45;6.18;;;;;;;;;;8292202;28;20394;-73
2021/08/25 23:26:54;;;;;;;13.18;6.43;;;;;;;;;;8290287;28;20383;-73
2021/08/25 23:31:00;;;;;;;16.45;6.05;;;;;;;;;;8289963;28;20071;-73
2021/08/25 23:35:06;;;;;;;12.68;5.72;;;;;;;;;;8291393;28;20052;-73
2021/08/25 23:39:11;;;;;;;12.10;5.55;;;;;;;;;;8289588;28;20494;-73
2021/08/25 23:43:16;;;;;;;11.30;5.97;;;;;;;;;;8289061;28;20504;-73
2021/08/25 23:47:23;;;;;;;10.25;5.68;;;;;;;;;;8292689;28;20037;-73
2021/08/25 23:51:28;;;;;;;11.77;5.90;;;;;;;;;;8290324;28;20070;-73
2021/08/25 23:55:33;;;;;;;13.95;5.78;;;;;;;;;;8305219;28;20032;-73
2021/08/25 23:59:38;;;;;;;11.82;5.07;;;;;;;;;;8291333;28;20501;-74
